Time;durP1;ratioP1;P1;durP2;ratioP2;P2;SDS_P1;SDS_P2;PMS_P1;PMS_P2;Temp;Humidity;BMP_temperature;BMP_pressure;BME280_temperature;BME280_humidity;BME280_pressure;Samples;Min_cycle;Max_cycle;Signal;HPM_P1;HPM_P2
2021/05/17 00:02:22;;;;;;;0.20;0.20;;;;;;;19.00;31.21;98143.97;5093716;28;20028;-61
2021/05/17 00:04:50;;;;;;;0.20;0.20;;;;;;;19.01;31.21;98137.31;5095128;28;20039;-62
2021/05/17 00:07:16;;;;;;;0.10;0.10;;;;;;;19.05;31.33;98143.88;5095136;28;20030;-63
2021/05/17 00:09:43;;;;;;;0.10;0.10;;;;;;;19.09;31.45;98144.91;5095034;28;20036;-63
2021/05/17 00:12:10;;;;;;;0.88;0.45;;;;;;;19.14;31.44;98144.84;5093549;28;20508;-62
2021/05/17 00:14:36;;;;;;;0.73;0.30;;;;;;;19.24;31.47;98153.00;5095124;28;20051;-63
2021/05/17 00:17:04;;;;;;;0.40;0.40;;;;;;;19.36;31.12;98148.84;5093466;28;20028;-62
2021/05/17 00:19:30;;;;;;;0.28;0.28;;;;;;;19.49;31.04;98141.63;5094666;28;20055;-62
2021/05/17 00:21:56;;;;;;;0.22;0.22;;;;;;;19.60;31.20;98143.09;5093427;28;20105;-62
2021/05/17 00:24:22;;;;;;;0.10;0.10;;;;;;;19.81;30.85;98143.47;5094652;28;20511;-62
2021/05/17 00:26:48;;;;;;;0.20;0.20;;;;;;;20.11;30.51;98143.91;5094504;28;20052;-63
2021/05/17 00:29:15;;;;;;;0.38;0.38;;;;;;;20.25;30.31;98141.91;5094576;28;20520;-63
2021/05/17 00:31:43;;;;;;;0.25;0.25;;;;;;;20.51;30.15;98146.91;5094296;28;20032;-63
2021/05/17 00:34:10;;;;;;;0.20;0.20;;;;;;;20.94;29.56;98142.78;5093828;28;20039;-63
2021/05/17 00:36:37;;;;;;;0.47;0.30;;;;;;;21.29;29.15;98135.38;5094809;28;20028;-62
2021/05/17 00:39:11;;;;;;;0.22;0.22;;;;;;;21.55;29.00;98133.84;5094479;28;20036;-63
2021/05/17 00:41:38;;;;;;;0.10;0.10;;;;;;;21.83;28.96;98137.19;5094596;28;20024;-62
2021/05/17 00:44:05;;;;;;;0.10;0.10;;;;;;;22.31;28.49;98146.63;5094436;28;20066;-62
2021/05/17 00:46:31;;;;;;;0.15;0.15;;;;;;;22.74;28.12;98145.81;5094053;28;20497;-63
2021/05/17 00:48:58;;;;;;;0.75;0.75;;;;;;;22.63;28.23;98139.75;5094703;28;20490;-61
2021/05/17 00:51:24;;;;;;;0.10;0.10;;;;;;;22.66;28.43;98141.03;5094215;28;20042;-63
2021/05/17 00:53:50;;;;;;;0.20;0.20;;;;;;;22.60;28.48;98139.56;5094175;28;20032;-63
2021/05/17 00:56:16;;;;;;;0.10;0.10;;;;;;;22.31;28.95;98141.84;5092721;28;20401;-63
2021/05/17 00:58:43;;;;;;;0.10;0.10;;;;;;;22.18;29.34;98145.63;5092657;28;20115;-63
2021/05/17 01:01:09;;;;;;;0.10;0.10;;;;;;;22.18;29.50;98145.63;5093829;28;20036;-59
2021/05/17 01:03:35;;;;;;;0.10;0.10;;;;;;;22.85;28.85;98143.47;5094033;28;20494;-60
2021/05/17 01:06:02;;;;;;;0.10;0.10;;;;;;;23.42;27.71;98143.16;5093714;28;20077;-59
2021/05/17 01:08:38;;;;;;;0.10;0.10;;;;;;;23.71;27.89;98130.31;5094248;28;20048;-60
2021/05/17 01:11:05;;;;;;;0.10;0.10;;;;;;;24.33;27.03;98136.34;5093236;28;20040;-59
2021/05/17 01:13:32;;;;;;;0.10;0.10;;;;;;;25.40;26.14;98135.78;5093739;28;20038;-59
2021/05/17 01:16:00;;;;;;;0.20;0.20;;;;;;;26.26;25.29;98125.66;5093555;28;20028;-60
2021/05/17 01:18:27;;;;;;;0.13;0.13;;;;;;;27.06;24.65;98138.00;5094043;28;20142;-61
2021/05/17 01:20:55;;;;;;;0.10;0.10;;;;;;;27.88;23.81;98128.00;5094065;28;20367;-60
2021/05/17 01:25:47;;;;;;;0.10;0.10;;;;;;;28.71;23.58;98124.22;5093170;28;20498;-60
2021/05/17 01:28:20;;;;;;;0.10;0.10;;;;;;;28.75;23.77;98129.94;5093850;28;20430;-60
2021/05/17 01:30:50;;;;;;;0.10;0.10;;;;;;;28.82;23.62;98128.06;5093393;28;20044;-61
2021/05/17 01:33:16;;;;;;;0.10;0.10;;;;;;;28.97;23.66;98142.47;5093246;28;20054;-60
2021/05/17 01:35:43;;;;;;;0.10;0.10;;;;;;;29.32;23.48;98142.34;5092096;28;20039;-61
2021/05/17 01:38:14;;;;;;;0.10;0.10;;;;;;;30.12;22.89;98143.66;5093073;28;20036;-61
2021/05/17 01:40:46;;;;;;;0.22;0.22;;;;;;;30.78;22.27;98143.34;5091868;28;20032;-59
2021/05/17 01:43:15;;;;;;;0.20;0.20;;;;;;;31.73;21.69;98141.91;5092054;28;20447;-61
2021/05/17 01:45:41;;;;;;;0.00;0.00;;;;;;;32.63;21.04;98141.66;5093112;28;20134;-61
2021/05/17 01:48:08;;;;;;;0.10;0.10;;;;;;;33.40;20.48;98150.03;5091738;28;20501;-62
2021/05/17 01:50:36;;;;;;;0.10;0.10;;;;;;;34.07;20.03;98130.56;5093334;28;20028;-61
2021/05/17 01:53:03;;;;;;;0.20;0.20;;;;;;;34.40;19.91;98148.41;5091808;28;20055;-61
2021/05/17 01:55:29;;;;;;;0.03;0.03;;;;;;;34.11;20.67;98148.41;5091604;28;20400;-61
2021/05/17 01:58:09;;;;;;;0.35;0.35;;;;;;;33.71;21.19;98136.25;5092929;28;20059;-62
2021/05/17 02:00:36;;;;;;;0.00;0.00;;;;;;;32.88;22.01;98158.00;5091552;28;20035;-62
2021/05/17 02:03:03;;;;;;;0.10;0.10;;;;;;;31.91;23.04;98136.34;5089508;28;20513;-61
2021/05/17 02:05:29;;;;;;;0.10;0.10;;;;;;;31.25;23.73;98136.19;5091027;28;20923;-62
2021/05/17 02:07:56;;;;;;;0.20;0.20;;;;;;;30.86;24.19;98126.03;5090996;28;20058;-62
2021/05/17 02:10:26;;;;;;;0.17;0.17;;;;;;;30.81;23.98;98134.06;5091191;28;20024;-64
2021/05/17 02:12:52;;;;;;;0.10;0.10;;;;;;;30.74;24.07;98135.59;5090776;28;20032;-63
2021/05/17 02:15:19;;;;;;;0.10;0.10;;;;;;;30.31;24.55;98135.00;5086762;28;20469;-64
2021/05/17 02:18:00;;;;;;;0.47;0.35;;;;;;;29.53;25.27;98115.63;5091881;28;20779;-63
2021/05/17 02:20:30;;;;;;;0.17;0.17;;;;;;;28.67;25.93;98131.81;5089529;28;20418;-63
2021/05/17 02:22:59;;;;;;;0.25;0.25;;;;;;;28.23;26.37;98149.78;5089521;28;20481;-63
2021/05/17 02:25:25;;;;;;;0.10;0.10;;;;;;;27.94;26.82;98146.31;5089525;28;20020;-62
2021/05/17 02:27:51;;;;;;;0.10;0.10;;;;;;;27.74;26.71;98138.97;5089816;28;20078;-63
2021/05/17 02:30:18;;;;;;;0.10;0.10;;;;;;;28.02;26.51;98141.66;5092033;28;20028;-63
2021/05/17 02:32:44;;;;;;;1.08;0.45;;;;;;;28.48;25.66;98141.06;5092283;28;20085;-62
2021/05/17 02:35:10;;;;;;;0.65;0.20;;;;;;;28.73;25.42;98137.97;5091034;28;20111;-62
2021/05/17 02:37:36;;;;;;;0.13;0.13;;;;;;;28.87;25.15;98146.72;5092713;28;20138;-64
2021/05/17 02:40:05;;;;;;;0.52;0.50;;;;;;;28.71;25.40;98129.88;5092330;28;20529;-62
2021/05/17 02:42:35;;;;;;;0.13;0.13;;;;;;;28.30;25.51;98130.19;5090807;28;20063;-65
2021/05/17 02:45:05;;;;;;;0.15;0.15;;;;;;;28.75;25.07;98132.75;5092552;28;20055;-63
2021/05/17 02:47:34;;;;;;;0.03;0.03;;;;;;;30.37;23.38;98147.66;5091424;28;20132;-63
2021/05/17 02:50:00;;;;;;;0.30;0.30;;;;;;;31.91;21.57;98149.75;5092107;28;20551;-63
2021/05/17 02:52:32;;;;;;;0.00;0.00;;;;;;;33.39;20.53;98154.09;5092334;28;20024;-63
2021/05/17 02:55:03;;;;;;;0.13;0.13;;;;;;;34.19;20.04;98155.75;5092412;28;20598;-64
2021/05/17 02:57:50;;;;;;;0.10;0.10;;;;;;;34.59;20.27;98152.00;5092720;28;20028;-64
2021/05/17 03:00:22;;;;;;;0.10;0.10;;;;;;;35.20;19.91;98148.88;5092363;28;20070;-63
2021/05/17 03:02:58;;;;;;;0.10;0.10;;;;;;;35.61;19.85;98156.78;5092286;28;20050;-66
2021/05/17 03:05:26;;;;;;;0.40;0.40;;;;;;;35.77;19.47;98153.38;5092292;28;20032;-68
2021/05/17 03:08:05;;;;;;;0.10;0.10;;;;;;;36.22;19.61;98152.56;5092521;28;20085;-67
2021/05/17 03:10:33;;;;;;;0.00;0.00;;;;;;;36.16;19.51;98146.53;5090884;28;20169;-67
2021/05/17 03:13:17;;;;;;;0.10;0.10;;;;;;;36.17;19.69;98136.69;5092316;28;20031;-68
2021/05/17 03:15:45;;;;;;;0.10;0.10;;;;;;;36.46;19.65;98139.28;5092292;28;20497;-67
2021/05/17 03:18:11;;;;;;;0.55;0.55;;;;;;;36.23;20.04;98149.28;5090801;28;20032;-68
2021/05/17 03:20:38;;;;;;;0.35;0.35;;;;;;;35.83;20.46;98151.72;5092658;28;20425;-67
2021/05/17 03:23:11;;;;;;;0.20;0.20;;;;;;;35.69;20.31;98146.09;5073927;28;20039;-69
2021/05/17 03:25:38;;;;;;;0.20;0.20;;;;;;;36.17;19.94;98161.63;5092087;28;20165;-68
2021/05/17 03:28:04;;;;;;;0.10;0.10;;;;;;;37.47;19.26;98176.00;5090574;28;20135;-69
2021/05/17 03:30:31;;;;;;;0.20;0.20;;;;;;;38.44;18.15;98172.75;5092104;28;20498;-68
2021/05/17 03:32:57;;;;;;;0.32;0.32;;;;;;;39.13;17.79;98164.38;5092071;28;20032;-67
2021/05/17 03:35:22;;;;;;;0.28;0.28;;;;;;;39.50;17.74;98165.19;5094984;28;20041;-68
2021/05/17 03:37:49;;;;;;;0.10;0.10;;;;;;;40.38;17.01;98151.06;5095814;28;20563;-67
2021/05/17 03:40:17;;;;;;;0.10;0.10;;;;;;;41.26;16.80;98155.97;5095570;28;20105;-68
2021/05/17 03:42:44;;;;;;;0.10;0.10;;;;;;;41.89;16.31;98145.72;5095503;28;20028;-67
2021/05/17 03:45:12;;;;;;;0.10;0.10;;;;;;;42.11;16.08;98130.53;5095723;28;20032;-64
2021/05/17 03:47:37;;;;;;;0.40;0.40;;;;;;;42.39;16.01;98131.63;5094631;28;20081;-65
2021/05/17 03:50:05;;;;;;;0.10;0.10;;;;;;;42.60;16.23;98129.25;5095511;28;20036;-64
2021/05/17 03:52:31;;;;;;;0.15;0.15;;;;;;;42.70;15.96;98140.38;5128247;27;20111;-64
2021/05/17 03:54:57;;;;;;;0.10;0.10;;;;;;;42.80;16.13;98149.91;5095274;28;20056;-64
2021/05/17 03:57:23;;;;;;;0.10;0.10;;;;;;;42.95;15.90;98143.56;5095789;28;20398;-64
2021/05/17 03:59:49;;;;;;;0.10;0.10;;;;;;;42.85;16.22;98134.06;5093787;28;20044;-64
2021/05/17 04:02:17;;;;;;;0.10;0.10;;;;;;;42.76;16.28;98131.91;5095059;28;20035;-64
2021/05/17 04:04:54;;;;;;;1.08;0.40;;;;;;;42.51;16.39;98132.84;5095393;28;20028;-64
2021/05/17 04:07:45;;;;;;;0.10;0.10;;;;;;;41.84;17.02;98132.66;5094880;28;20035;-65
2021/05/17 04:15:37;;;;;;;0.20;0.20;;;;;;;41.17;17.36;98113.44;5094897;28;20035;-64
2021/05/17 04:18:03;;;;;;;0.10;0.10;;;;;;;41.83;16.75;98122.44;5095368;28;20039;-64
2021/05/17 04:20:28;;;;;;;0.10;0.10;;;;;;;42.49;16.23;98126.72;5095256;28;20032;-63
2021/05/17 04:22:54;;;;;;;0.10;0.10;;;;;;;42.96;15.65;98116.31;5095148;28;20093;-63
2021/05/17 04:25:20;;;;;;;0.20;0.20;;;;;;;43.47;15.70;98115.16;5094990;28;20036;-64
2021/05/17 04:27:46;;;;;;;0.10;0.10;;;;;;;44.03;15.41;98111.13;5094571;28;20056;-64
2021/05/17 04:30:12;;;;;;;0.10;0.10;;;;;;;44.30;15.10;98102.97;5094790;28;20027;-64
2021/05/17 04:32:38;;;;;;;0.10;0.10;;;;;;;44.39;15.14;98132.72;5094667;28;20024;-65
2021/05/17 04:35:05;;;;;;;0.10;0.10;;;;;;;44.59;15.31;98114.03;5095093;28;20513;-65
2021/05/17 04:37:30;;;;;;;0.10;0.10;;;;;;;44.63;14.86;98117.59;5094959;28;20039;-64
2021/05/17 04:39:56;;;;;;;0.10;0.10;;;;;;;44.75;14.84;98128.19;5093179;28;20035;-65
2021/05/17 04:42:22;;;;;;;0.20;0.20;;;;;;;44.60;15.22;98128.03;5094958;28;20059;-64
2021/05/17 04:44:48;;;;;;;0.40;0.38;;;;;;;43.90;15.85;98140.19;5094525;28;20034;-64
2021/05/17 04:47:14;;;;;;;0.10;0.10;;;;;;;43.37;16.03;98141.09;5094169;28;20549;-63
2021/05/17 04:49:39;;;;;;;0.10;0.10;;;;;;;42.71;16.68;98141.16;5092550;28;20032;-64
2021/05/17 04:52:05;;;;;;;0.10;0.10;;;;;;;42.63;16.59;98134.06;5093732;28;20032;-63
2021/05/17 04:54:32;;;;;;;0.20;0.20;;;;;;;42.54;16.81;98137.66;5093590;28;20028;-64
2021/05/17 04:56:57;;;;;;;0.10;0.10;;;;;;;42.85;16.38;98146.41;5092413;28;20032;-63
2021/05/17 04:59:23;;;;;;;0.20;0.20;;;;;;;43.40;15.77;98140.13;5094158;28;20508;-64
2021/05/17 05:01:49;;;;;;;0.10;0.10;;;;;;;43.59;15.51;98137.34;5093901;28;20102;-64
2021/05/17 05:04:15;;;;;;;0.10;0.10;;;;;;;43.70;15.78;98145.56;5094076;28;20034;-63
2021/05/17 05:06:40;;;;;;;0.10;0.10;;;;;;;43.75;15.97;98136.28;5093904;28;20081;-64
2021/05/17 05:09:06;;;;;;;0.10;0.10;;;;;;;43.41;16.00;98129.41;5092474;28;20119;-64
2021/05/17 05:11:32;;;;;;;0.20;0.10;;;;;;;43.53;15.93;98125.59;5093805;28;20036;-65
2021/05/17 05:13:58;;;;;;;0.20;0.20;;;;;;;43.50;15.89;98125.75;5093836;28;20120;-65
2021/05/17 05:16:24;;;;;;;0.10;0.10;;;;;;;43.74;15.65;98131.75;5093975;28;20503;-64
2021/05/17 05:18:49;;;;;;;0.10;0.10;;;;;;;43.96;15.47;98136.66;5094145;28;20390;-64
2021/05/17 05:21:15;;;;;;;0.08;0.08;;;;;;;43.86;15.55;98133.78;5093756;28;20035;-64
2021/05/17 05:23:41;;;;;;;0.10;0.10;;;;;;;43.58;15.87;98136.56;5093407;28;20035;-62
2021/05/17 05:26:39;;;;;;;0.10;0.10;;;;;;;43.50;15.93;98140.22;5092978;28;20048;-65
2021/05/17 05:31:50;;;;;;;0.20;0.20;;;;;;;41.15;17.45;98128.31;5093389;28;20032;-64
2021/05/17 05:34:15;;;;;;;0.10;0.10;;;;;;;39.10;18.70;98135.75;5093311;28;20089;-63
2021/05/17 05:36:41;;;;;;;0.10;0.10;;;;;;;37.75;19.72;98130.97;5093229;28;20436;-64
2021/05/17 05:39:07;;;;;;;0.57;0.22;;;;;;;36.70;20.39;98125.91;5093584;28;20119;-64
2021/05/17 05:41:34;;;;;;;0.00;0.00;;;;;;;35.78;21.23;98133.00;5091680;28;20060;-64
2021/05/17 05:43:59;;;;;;;0.20;0.20;;;;;;;35.03;21.35;98140.00;5091654;28;20028;-63
2021/05/17 05:46:25;;;;;;;0.60;0.20;;;;;;;34.40;21.83;98140.66;5093071;28;20024;-64
2021/05/17 05:48:51;;;;;;;0.10;0.10;;;;;;;33.93;22.01;98136.25;5093353;28;20078;-64
2021/05/17 05:51:21;;;;;;;0.10;0.10;;;;;;;33.53;22.24;98124.84;5093169;28;20529;-65
2021/05/17 05:53:47;;;;;;;0.10;0.10;;;;;;;33.16;22.07;98146.72;5092124;28;20034;-64
2021/05/17 05:56:13;;;;;;;0.10;0.10;;;;;;;32.77;22.35;98152.28;5091717;28;20024;-64
2021/05/17 05:58:39;;;;;;;0.22;0.22;;;;;;;32.38;22.15;98141.56;5092582;28;20039;-64
2021/05/17 06:01:05;;;;;;;0.00;0.00;;;;;;;32.10;22.56;98142.97;5093377;28;20032;-64
2021/05/17 06:03:31;;;;;;;1.38;0.30;;;;;;;31.89;22.24;98137.94;5093083;28;20101;-64
2021/05/17 06:05:57;;;;;;;0.22;0.22;;;;;;;31.73;22.39;98153.25;5093112;28;20075;-64
2021/05/17 06:08:23;;;;;;;0.00;0.00;;;;;;;31.57;22.20;98150.69;5092786;28;20465;-64
2021/05/17 06:10:49;;;;;;;0.10;0.10;;;;;;;31.43;22.26;98151.34;5092854;28;20035;-64
2021/05/17 06:13:15;;;;;;;0.05;0.05;;;;;;;31.26;22.26;98149.97;5092843;28;20066;-64
2021/05/17 06:15:44;;;;;;;0.35;0.30;;;;;;;31.14;22.32;98155.09;5092737;28;20036;-65
2021/05/17 06:18:11;;;;;;;0.10;0.10;;;;;;;30.94;22.35;98158.09;5092425;28;20092;-63
2021/05/17 06:20:38;;;;;;;0.10;0.10;;;;;;;30.76;22.34;98152.22;5092987;28;20027;-64
2021/05/17 06:23:04;;;;;;;0.30;0.30;;;;;;;30.64;22.51;98150.47;5092916;28;20039;-63
2021/05/17 06:25:30;;;;;;;0.03;0.03;;;;;;;30.56;22.29;98154.41;5092589;28;20489;-64
2021/05/17 06:27:56;;;;;;;0.10;0.10;;;;;;;30.49;22.41;98157.13;5092901;28;20051;-64
2021/05/17 06:30:24;;;;;;;0.10;0.10;;;;;;;30.35;22.12;98155.72;5091290;28;20507;-63
2021/05/17 06:32:50;;;;;;;0.20;0.20;;;;;;;30.28;22.30;98160.47;5092385;28;20615;-63
2021/05/17 06:35:23;;;;;;;0.08;0.08;;;;;;;30.25;22.16;98162.03;5092281;28;20048;-64
2021/05/17 06:37:48;;;;;;;0.53;0.30;;;;;;;30.21;22.27;98164.84;5092484;28;20036;-64
2021/05/17 06:40:14;;;;;;;0.20;0.20;;;;;;;30.15;22.28;98155.03;5092340;28;20043;-63
2021/05/17 06:42:40;;;;;;;0.10;0.10;;;;;;;30.10;22.16;98151.72;5091126;28;20031;-64
2021/05/17 06:45:07;;;;;;;0.38;0.30;;;;;;;30.03;22.31;98141.09;5092511;28;20409;-64
2021/05/17 06:47:34;;;;;;;0.70;0.50;;;;;;;29.97;22.06;98149.09;5092718;28;20028;-65
2021/05/17 06:50:00;;;;;;;0.13;0.13;;;;;;;29.89;22.30;98138.88;5092504;28;20038;-65
2021/05/17 06:52:26;;;;;;;0.20;0.20;;;;;;;29.81;22.37;98143.56;5090937;28;20029;-65
2021/05/17 06:55:04;;;;;;;0.00;0.00;;;;;;;29.75;22.29;98138.63;5092499;28;20044;-66
2021/05/17 07:00:24;;;;;;;0.08;0.08;;;;;;;29.64;22.40;98138.44;5092596;28;20402;-67
2021/05/17 07:02:52;;;;;;;0.10;0.10;;;;;;;29.59;22.50;98136.72;5092289;28;20028;-65
2021/05/17 07:05:21;;;;;;;0.00;0.00;;;;;;;29.58;22.32;98131.44;5092295;28;20028;-66
2021/05/17 07:13:14;;;;;;;0.00;0.00;;;;;;;29.62;22.39;98127.50;5083855;28;20528;-66
2021/05/17 07:15:40;;;;;;;0.20;0.20;;;;;;;29.66;21.93;98128.38;5088726;28;20031;-66
2021/05/17 07:18:06;;;;;;;0.32;0.32;;;;;;;29.66;22.11;98114.22;5088095;28;20024;-68
2021/05/17 07:23:37;;;;;;;0.17;0.17;;;;;;;29.71;22.09;98111.09;5087622;28;20406;-66
2021/05/17 07:26:05;;;;;;;0.13;0.13;;;;;;;29.87;21.68;98101.63;5092298;28;20273;-65
2021/05/17 07:28:31;;;;;;;0.35;0.35;;;;;;;29.87;21.85;98098.81;5089713;28;20092;-68
2021/05/17 07:31:03;;;;;;;0.10;0.10;;;;;;;29.78;22.15;98096.22;5086710;28;20032;-65
2021/05/17 07:33:29;;;;;;;0.20;0.20;;;;;;;29.67;21.99;98098.09;5083556;28;20058;-66
2021/05/17 07:35:54;;;;;;;1.50;0.43;;;;;;;29.61;21.95;98099.56;5086024;28;20036;-66
2021/05/17 07:38:23;;;;;;;0.05;0.05;;;;;;;29.57;22.19;98102.38;5088057;28;20032;-67
2021/05/17 07:40:49;;;;;;;0.32;0.32;;;;;;;29.57;21.95;98095.91;5088894;28;20055;-66
2021/05/17 07:43:16;;;;;;;0.10;0.10;;;;;;;29.56;22.09;98091.44;5093815;28;20032;-66
2021/05/17 07:45:41;;;;;;;0.15;0.15;;;;;;;29.57;22.43;98093.06;5086723;28;20028;-66
2021/05/17 07:48:10;;;;;;;0.10;0.10;;;;;;;29.57;22.08;98088.22;5086882;28;20068;-68
2021/05/17 07:50:36;;;;;;;0.20;0.20;;;;;;;29.64;22.01;98087.53;5088311;28;20073;-68
2021/05/17 07:53:02;;;;;;;0.15;0.15;;;;;;;29.69;21.80;98085.16;5089932;28;20032;-67
2021/05/17 07:55:27;;;;;;;0.30;0.25;;;;;;;29.76;21.67;98080.84;5092687;28;20036;-64
2021/05/17 07:57:53;;;;;;;1.08;0.45;;;;;;;29.82;21.67;98082.16;5091817;28;20412;-70
2021/05/17 08:00:19;;;;;;;0.10;0.10;;;;;;;29.82;21.92;98077.31;5092362;28;20137;-68
2021/05/17 08:02:45;;;;;;;0.00;0.00;;;;;;;29.81;22.10;98072.00;5092721;28;20493;-67
2021/05/17 08:05:10;;;;;;;0.10;0.10;;;;;;;29.73;21.90;98078.75;5092253;28;20043;-65
2021/05/17 08:07:36;;;;;;;0.10;0.10;;;;;;;29.67;21.95;98067.78;5092357;28;20040;-69
2021/05/17 08:10:09;;;;;;;0.10;0.10;;;;;;;29.65;21.92;98055.19;5091844;28;20039;-68
2021/05/17 08:12:35;;;;;;;0.30;0.30;;;;;;;29.65;21.92;98053.19;5091962;28;20032;-67
2021/05/17 08:15:01;;;;;;;0.10;0.10;;;;;;;29.63;22.06;98052.75;5091245;28;20035;-68
2021/05/17 08:17:27;;;;;;;0.10;0.10;;;;;;;29.62;22.01;98050.31;5088099;28;20032;-64
2021/05/17 08:19:53;;;;;;;0.10;0.10;;;;;;;29.57;21.88;98037.31;5091798;28;20036;-67
2021/05/17 08:22:18;;;;;;;0.10;0.10;;;;;;;29.56;21.91;98034.88;5091716;28;20032;-68
2021/05/17 08:24:44;;;;;;;0.10;0.10;;;;;;;29.58;21.87;98038.94;5092071;28;20040;-66
2021/05/17 08:27:10;;;;;;;0.00;0.00;;;;;;;29.62;21.63;98036.16;5090960;28;20132;-68
2021/05/17 08:29:37;;;;;;;0.10;0.10;;;;;;;29.59;21.80;98023.59;5091910;28;20552;-69
2021/05/17 08:32:07;;;;;;;0.65;0.20;;;;;;;29.50;21.89;98023.88;5088668;28;20059;-67
2021/05/17 08:34:33;;;;;;;0.00;0.00;;;;;;;29.45;22.14;98026.22;5091775;28;20055;-68
2021/05/17 08:37:00;;;;;;;0.00;0.00;;;;;;;29.47;21.69;98021.78;5073881;28;20032;-67
2021/05/17 08:39:26;;;;;;;0.10;0.10;;;;;;;29.51;21.93;98022.66;5091571;28;20042;-71
2021/05/17 08:41:52;;;;;;;0.00;0.00;;;;;;;29.53;21.79;98008.97;5072931;28;20107;-69
2021/05/17 08:44:18;;;;;;;0.00;0.00;;;;;;;29.50;21.89;98008.91;5089109;28;20557;-70
2021/05/17 08:46:48;;;;;;;0.15;0.15;;;;;;;29.43;21.97;97991.84;5089861;28;20043;-67
2021/05/17 08:49:14;;;;;;;0.00;0.00;;;;;;;29.43;21.59;97987.00;5091315;28;20081;-68
2021/05/17 08:51:41;;;;;;;0.10;0.10;;;;;;;29.46;21.76;97991.91;5089122;28;20475;-67
2021/05/17 08:54:09;;;;;;;0.05;0.05;;;;;;;29.52;21.74;97989.56;5090680;28;20035;-68
2021/05/17 08:56:45;;;;;;;0.10;0.10;;;;;;;29.55;21.63;97994.47;5091339;28;20068;-68
2021/05/17 08:59:15;;;;;;;0.00;0.00;;;;;;;29.57;21.55;97979.94;5087296;28;20476;-68
2021/05/17 09:01:42;;;;;;;0.10;0.10;;;;;;;29.58;21.42;97970.22;5090076;28;20036;-69
2021/05/17 09:04:14;;;;;;;0.20;0.20;;;;;;;29.61;21.54;97973.13;5091029;28;20032;-67
2021/05/17 09:06:41;;;;;;;0.00;0.00;;;;;;;29.69;21.28;97979.69;5089470;28;20042;-68
2021/05/17 09:09:32;;;;;;;0.00;0.00;;;;;;;29.80;21.08;97968.50;5090370;28;20051;-69
2021/05/17 09:11:58;;;;;;;0.32;0.20;;;;;;;29.82;21.19;97974.66;5089568;28;20050;-66
2021/05/17 09:14:26;;;;;;;0.05;0.05;;;;;;;29.84;20.93;97952.44;5089280;28;20024;-66
2021/05/17 09:16:54;;;;;;;0.00;0.00;;;;;;;29.90;21.16;97961.41;5090258;28;20084;-68
2021/05/17 09:19:21;;;;;;;0.10;0.10;;;;;;;29.91;20.89;97955.34;5091167;28;20062;-66
2021/05/17 09:22:00;;;;;;;0.05;0.05;;;;;;;29.88;20.91;97945.59;5090417;28;20113;-66
2021/05/17 09:24:40;;;;;;;0.10;0.10;;;;;;;29.89;21.23;97935.13;5090011;28;20545;-67
2021/05/17 09:27:11;;;;;;;0.17;0.17;;;;;;;29.89;21.31;97935.13;5088741;28;20078;-68
2021/05/17 09:29:39;;;;;;;0.03;0.03;;;;;;;29.91;21.10;97944.03;5089935;28;20036;-65
2021/05/17 09:32:17;;;;;;;0.10;0.10;;;;;;;29.97;21.01;97955.84;5089668;28;20093;-67
2021/05/17 09:34:46;;;;;;;0.22;0.20;;;;;;;30.03;20.81;97940.13;5090297;28;20086;-68
2021/05/17 09:37:13;;;;;;;0.00;0.00;;;;;;;29.97;21.10;97967.16;5088702;28;20032;-67
2021/05/17 09:39:49;;;;;;;0.00;0.00;;;;;;;30.04;20.73;97958.75;5089953;28;20070;-69
2021/05/17 09:42:15;;;;;;;0.00;0.00;;;;;;;30.05;20.91;97954.72;5088531;28;20533;-71
2021/05/17 09:44:45;;;;;;;0.00;0.00;;;;;;;30.09;20.74;97949.09;5090297;28;20121;-69
2021/05/17 09:47:15;;;;;;;0.10;0.10;;;;;;;30.13;20.85;97944.28;5089901;28;20032;-69
2021/05/17 09:49:50;;;;;;;0.00;0.00;;;;;;;30.23;20.64;97937.94;5088498;28;20024;-70
2021/05/17 09:52:25;;;;;;;0.00;0.00;;;;;;;30.23;20.90;97947.25;5089781;28;20114;-70
2021/05/17 09:55:10;;;;;;;0.20;0.20;;;;;;;30.22;20.50;97933.47;5089491;28;20036;-70
2021/05/17 09:57:36;;;;;;;0.10;0.10;;;;;;;30.42;20.40;97947.44;5087987;28;20192;-69
2021/05/17 10:00:29;;;;;;;0.40;0.30;;;;;;;30.63;20.37;97933.50;5090115;28;20123;-73
2021/05/17 10:03:00;;;;;;;0.10;0.10;;;;;;;30.82;20.14;97946.63;5088539;28;20414;-70
2021/05/17 10:05:28;;;;;;;0.10;0.10;;;;;;;30.93;20.03;97952.38;5089386;28;20059;-69
2021/05/17 10:08:03;;;;;;;0.00;0.00;;;;;;;30.90;19.98;97947.50;5089861;28;20067;-71
2021/05/17 10:10:30;;;;;;;0.03;0.03;;;;;;;30.86;20.10;97946.66;5089982;28;20143;-67
2021/05/17 10:12:58;;;;;;;0.10;0.10;;;;;;;30.88;20.12;97930.06;5089305;28;20060;-68
2021/05/17 10:15:26;;;;;;;0.20;0.20;;;;;;;31.05;20.02;97931.44;5089272;28;20516;-69
2021/05/17 10:17:52;;;;;;;0.20;0.20;;;;;;;31.15;19.83;97936.38;5089550;28;20063;-68
2021/05/17 10:20:21;;;;;;;0.28;0.25;;;;;;;31.22;19.92;97925.09;5089183;28;20044;-67
2021/05/17 10:22:49;;;;;;;0.00;0.00;;;;;;;31.30;19.91;97931.59;5089949;28;20028;-67
2021/05/17 10:25:23;;;;;;;0.10;0.10;;;;;;;31.42;19.57;97922.78;5088196;28;20508;-70
2021/05/17 10:27:52;;;;;;;0.10;0.10;;;;;;;31.47;19.54;97923.63;5070462;28;20052;-67
2021/05/17 10:30:44;;;;;;;0.17;0.17;;;;;;;31.41;19.76;97918.31;5089184;28;20472;-68
2021/05/17 10:33:14;;;;;;;0.10;0.10;;;;;;;31.38;19.82;97918.31;5085293;28;20534;-68
2021/05/17 10:35:40;;;;;;;0.08;0.08;;;;;;;31.31;19.92;97921.09;5089464;28;20542;-67
2021/05/17 10:38:20;;;;;;;0.10;0.10;;;;;;;31.36;19.79;97924.38;5088798;28;20032;-69
2021/05/17 10:40:49;;;;;;;0.10;0.10;;;;;;;31.46;19.68;97922.78;5087828;28;20516;-68
2021/05/17 10:43:50;;;;;;;0.00;0.00;;;;;;;31.43;19.73;97921.59;5090667;28;20028;-68
2021/05/17 10:46:40;;;;;;;0.08;0.08;;;;;;;31.38;19.71;97913.44;5093747;28;20100;-67
2021/05/17 10:49:19;;;;;;;0.10;0.10;;;;;;;31.08;20.04;97920.16;5093000;28;20401;-66
2021/05/17 10:51:45;;;;;;;0.03;0.03;;;;;;;30.99;19.95;97907.47;5093009;28;20080;-69
2021/05/17 10:54:22;;;;;;;0.10;0.10;;;;;;;30.96;20.06;97894.91;5093469;28;20154;-73
2021/05/17 10:56:59;;;;;;;0.00;0.00;;;;;;;30.86;20.19;97915.47;5093631;28;20086;-67
2021/05/17 11:02:29;;;;;;;0.00;0.00;;;;;;;30.36;20.78;97918.63;5092951;28;20362;-68
2021/05/17 11:04:56;;;;;;;0.10;0.10;;;;;;;30.34;20.66;97938.84;5092959;28;20043;-67
2021/05/17 11:07:31;;;;;;;0.10;0.10;;;;;;;30.46;20.73;97934.16;5093078;28;20078;-69
2021/05/17 11:10:09;;;;;;;0.10;0.10;;;;;;;30.43;20.67;97932.09;5093029;28;20040;-69
2021/05/17 11:12:41;;;;;;;0.03;0.03;;;;;;;30.39;20.63;97932.84;5090356;28;20576;-70
2021/05/17 11:15:15;;;;;;;0.05;0.05;;;;;;;30.54;20.62;97924.53;5093030;28;20043;-70
2021/05/17 11:18:05;;;;;;;0.28;0.20;;;;;;;30.62;20.37;97931.88;5092383;28;20032;-67
2021/05/17 11:20:49;;;;;;;0.20;0.20;;;;;;;30.58;20.64;97926.19;5092715;28;20035;-66
2021/05/17 11:23:25;;;;;;;0.25;0.25;;;;;;;30.58;20.66;97905.56;5090972;28;20043;-67
2021/05/17 11:26:07;;;;;;;0.20;0.20;;;;;;;30.64;20.73;97903.16;5092004;28;20036;-68
2021/05/17 11:28:42;;;;;;;0.08;0.08;;;;;;;30.64;20.60;97901.16;5092452;28;20028;-67
2021/05/17 11:31:16;;;;;;;0.00;0.00;;;;;;;30.63;20.84;97910.03;5092138;28;20040;-68
2021/05/17 11:34:04;;;;;;;2.20;0.20;;;;;;;30.66;20.65;97906.41;5092194;28;20101;-67
2021/05/17 11:36:39;;;;;;;0.10;0.10;;;;;;;30.70;20.52;97902.41;5092323;28;20042;-66
2021/05/17 11:39:13;;;;;;;0.00;0.00;;;;;;;30.69;20.52;97892.28;5092163;28;20031;-66
2021/05/17 11:41:49;;;;;;;0.10;0.10;;;;;;;30.59;20.53;97887.31;5091912;28;20416;-67
2021/05/17 11:44:27;;;;;;;0.10;0.10;;;;;;;30.55;20.84;97875.97;5090434;28;20067;-68
2021/05/17 11:47:03;;;;;;;0.05;0.05;;;;;;;30.42;20.94;97866.16;5091761;28;20047;-67
2021/05/17 11:49:32;;;;;;;0.10;0.10;;;;;;;30.31;20.93;97866.00;5091624;28;20043;-66
2021/05/17 11:52:00;;;;;;;0.00;0.00;;;;;;;30.28;20.84;97865.97;5092325;28;20508;-67
2021/05/17 11:54:34;;;;;;;0.10;0.10;;;;;;;30.25;21.04;97907.22;5089774;28;20056;-69
2021/05/17 11:57:01;;;;;;;;;;;;;;;30.18;20.99;97890.97;5086107;28;20032;-65
2021/05/17 11:59:29;;;;;;;0.10;0.10;;;;;;;30.19;21.16;97880.47;5087948;28;19922;-67
2021/05/17 12:01:57;;;;;;;0.10;0.10;;;;;;;30.15;20.82;97879.59;5087188;28;20055;-68
2021/05/17 12:04:28;;;;;;;0.10;0.10;;;;;;;30.01;21.32;97880.28;5088374;28;20481;-69
2021/05/17 12:07:00;;;;;;;2.40;0.52;;;;;;;29.92;21.51;97874.09;5088195;28;20130;-68
2021/05/17 12:09:52;;;;;;;2.17;0.17;;;;;;;29.87;21.33;97852.63;5088480;28;20039;-72